createdAt,value
2019-05-16T00:01:45.424Z,11.30
2019-05-16T00:04:11.693Z,11.30
2019-05-16T00:06:39.056Z,11.30
2019-05-16T00:09:07.878Z,11.30
2019-05-16T00:11:33.947Z,11.30
2019-05-16T00:14:00.388Z,11.30
2019-05-16T00:16:28.700Z,11.10
2019-05-16T00:18:55.039Z,11.10
2019-05-16T00:21:21.331Z,11.10
2019-05-16T00:23:48.556Z,11.10
2019-05-16T00:26:15.101Z,11.00
2019-05-16T00:28:41.452Z,11.10
2019-05-16T00:31:08.609Z,11.10
2019-05-16T00:33:35.094Z,11.10
2019-05-16T00:36:05.671Z,11.10
2019-05-16T00:38:29.648Z,11.10
2019-05-16T00:40:55.889Z,11.20
2019-05-16T00:43:22.230Z,11.10
2019-05-16T00:45:48.788Z,11.10
2019-05-16T00:48:15.203Z,11.10
2019-05-16T00:50:41.559Z,11.00
2019-05-16T00:53:09.104Z,11.10
2019-05-16T00:55:35.983Z,11.00
2019-05-16T00:58:02.823Z,11.10
2019-05-16T01:00:45.080Z,11.10
2019-05-16T01:03:11.889Z,11.00
2019-05-16T01:05:38.889Z,11.00
2019-05-16T01:08:07.750Z,11.00
2019-05-16T01:10:33.491Z,11.10
2019-05-16T01:12:59.752Z,11.10
2019-05-16T01:15:26.119Z,11.10
2019-05-16T01:17:52.361Z,11.10
2019-05-16T01:20:19.488Z,11.10
2019-05-16T01:22:45.869Z,11.10
2019-05-16T01:25:12.306Z,11.10
2019-05-16T01:27:38.851Z,11.00
2019-05-16T01:30:08.856Z,11.10
2019-05-16T01:32:34.814Z,11.00
2019-05-16T01:35:01.498Z,11.00
2019-05-16T01:37:27.942Z,10.90
2019-05-16T01:39:54.287Z,11.00
2019-05-16T01:42:20.566Z,11.10
2019-05-16T01:44:48.752Z,11.10
2019-05-16T01:47:14.975Z,11.10
2019-05-16T01:49:41.244Z,11.00
2019-05-16T01:52:08.446Z,10.90
2019-05-16T01:54:35.070Z,10.90
2019-05-16T01:57:01.439Z,10.90
2019-05-16T01:59:28.422Z,10.90
2019-05-16T02:01:54.790Z,10.90
2019-05-16T02:04:21.033Z,10.90
2019-05-16T02:06:54.229Z,10.90
2019-05-16T02:09:15.559Z,10.90
2019-05-16T02:11:41.906Z,10.90
2019-05-16T02:14:09.532Z,11.10
2019-05-16T02:16:38.335Z,11.00
2019-05-16T02:19:04.280Z,11.00
2019-05-16T02:21:30.701Z,10.90
2019-05-16T02:23:58.545Z,11.00
2019-05-16T02:26:25.027Z,11.00
2019-05-16T02:28:51.327Z,10.90
2019-05-16T02:31:17.730Z,10.90
2019-05-16T02:33:43.994Z,10.90
2019-05-16T02:36:11.050Z,10.90
2019-05-16T02:38:37.603Z,10.90
2019-05-16T02:41:04.021Z,10.90
2019-05-16T02:43:31.265Z,10.90
2019-05-16T02:46:01.022Z,10.90
2019-05-16T02:48:26.287Z,11.00
2019-05-16T02:50:52.549Z,10.90
2019-05-16T02:53:22.473Z,10.80
2019-05-16T02:55:47.968Z,11.00
2019-05-16T02:58:14.285Z,11.00
2019-05-16T03:00:42.514Z,11.00
2019-05-16T03:03:11.954Z,11.00
2019-05-16T03:05:37.178Z,11.00
2019-05-16T03:08:03.706Z,10.90
2019-05-16T03:10:31.218Z,11.00
2019-05-16T03:13:00.565Z,11.10
2019-05-16T03:15:26.566Z,11.10
2019-05-16T03:17:58.999Z,11.00
2019-05-16T03:20:26.719Z,10.90
2019-05-16T03:22:53.513Z,10.90
2019-05-16T03:25:22.155Z,10.90
2019-05-16T03:27:47.844Z,11.00
2019-05-16T03:30:16.247Z,11.00
2019-05-16T03:32:45.264Z,10.90
2019-05-16T03:35:15.344Z,11.00
2019-05-16T03:37:51.496Z,10.90
2019-05-16T03:40:06.618Z,10.90
2019-05-16T03:42:33.234Z,11.10
2019-05-16T03:45:02.227Z,11.00
2019-05-16T03:47:31.050Z,11.10
2019-05-16T03:49:55.730Z,11.00
2019-05-16T03:52:21.974Z,10.90
2019-05-16T03:54:50.678Z,10.80
2019-05-16T03:57:16.590Z,10.70
2019-05-16T03:59:43.012Z,10.80
2019-05-16T04:02:10.806Z,10.90
2019-05-16T04:04:37.286Z,10.80
2019-05-16T04:07:03.640Z,10.90
2019-05-16T04:09:31.493Z,10.90
2019-05-16T04:12:01.546Z,11.00
2019-05-16T04:14:26.689Z,11.00
2019-05-16T04:16:52.916Z,11.00
2019-05-16T04:19:21.102Z,11.10
2019-05-16T04:21:50.843Z,11.10
2019-05-16T04:24:15.510Z,11.00
2019-05-16T04:26:41.948Z,10.90
2019-05-16T04:29:11.500Z,11.00
2019-05-16T04:31:36.378Z,11.00
2019-05-16T04:34:02.964Z,11.00
2019-05-16T04:36:32.065Z,11.00
2019-05-16T04:38:57.389Z,11.00
2019-05-16T04:41:23.600Z,11.10
2019-05-16T04:43:50.737Z,11.10
2019-05-16T04:46:20.911Z,11.20
2019-05-16T04:48:45.566Z,11.10
2019-05-16T04:51:11.837Z,11.10
2019-05-16T04:53:38.101Z,11.10
2019-05-16T04:56:04.354Z,11.20
2019-05-16T04:58:31.667Z,11.20
2019-05-16T05:01:01.271Z,11.20
2019-05-16T05:03:26.553Z,11.20
2019-05-16T05:05:52.934Z,11.20
2019-05-16T05:08:21.815Z,11.30
2019-05-16T05:10:47.381Z,11.30
2019-05-16T05:13:13.632Z,11.30
2019-05-16T05:15:40.454Z,11.30
2019-05-16T05:18:06.945Z,11.30
2019-05-16T05:20:33.358Z,11.30
2019-05-16T05:23:00.430Z,11.30
2019-05-16T05:25:26.806Z,11.40
2019-05-16T05:27:53.085Z,11.30
2019-05-16T05:30:19.885Z,11.50
2019-05-16T05:32:46.236Z,11.40
2019-05-16T05:35:12.784Z,11.40
2019-05-16T05:37:41.056Z,11.30
2019-05-16T05:40:07.599Z,11.30
2019-05-16T05:42:33.926Z,11.50
2019-05-16T05:45:00.454Z,11.50
2019-05-16T05:47:26.696Z,11.60
2019-05-16T05:49:52.947Z,11.60
2019-05-16T05:52:20.864Z,11.60
2019-05-16T05:54:47.313Z,11.70
2019-05-16T05:57:13.605Z,11.70
2019-05-16T05:59:40.414Z,11.70
2019-05-16T06:02:06.898Z,11.70
2019-05-16T06:04:33.343Z,11.70
2019-05-16T06:07:01.205Z,11.70
2019-05-16T06:09:32.563Z,11.80
2019-05-16T06:11:56.914Z,11.80
2019-05-16T06:14:23.219Z,11.80
2019-05-16T06:16:50.837Z,11.70
2019-05-16T06:19:17.582Z,11.80
2019-05-16T06:21:45.365Z,11.90
2019-05-16T06:24:11.752Z,11.90
2019-05-16T06:26:39.769Z,11.90
2019-05-16T06:29:06.436Z,11.90
2019-05-16T06:31:32.884Z,12.00
2019-05-16T06:34:06.922Z,12.00
2019-05-16T06:36:27.744Z,12.00
2019-05-16T06:38:54.049Z,11.90
2019-05-16T06:41:20.335Z,11.90
2019-05-16T06:43:46.940Z,11.90
2019-05-16T06:46:13.250Z,11.90
2019-05-16T06:48:39.974Z,11.90
2019-05-16T06:51:06.388Z,12.00
2019-05-16T06:53:32.970Z,12.00
2019-05-16T06:56:00.100Z,12.10
2019-05-16T06:58:26.634Z,11.90
2019-05-16T07:00:52.987Z,12.00
2019-05-16T07:03:20.375Z,12.10
2019-05-16T07:05:47.357Z,12.10
2019-05-16T07:08:16.008Z,12.10
2019-05-16T07:10:42.394Z,12.00
2019-05-16T07:13:10.406Z,12.10
2019-05-16T07:15:36.967Z,12.10
2019-05-16T07:18:03.526Z,12.00
2019-05-16T07:20:30.193Z,12.00
2019-05-16T07:22:56.686Z,12.10
2019-05-16T07:25:23.144Z,12.20
2019-05-16T07:27:50.959Z,12.20
2019-05-16T07:30:19.926Z,12.20
2019-05-16T07:32:46.346Z,12.30
2019-05-16T07:35:13.302Z,12.30
2019-05-16T07:37:40.092Z,12.30
2019-05-16T07:40:19.427Z,12.30
2019-05-16T07:42:35.740Z,12.30
2019-05-16T07:45:04.566Z,12.30
2019-05-16T07:47:31.056Z,12.40
2019-05-16T07:49:59.463Z,12.30
2019-05-16T07:52:25.790Z,12.30
2019-05-16T07:54:52.235Z,12.40
2019-05-16T07:57:22.132Z,12.40
2019-05-16T07:59:47.026Z,12.30
2019-05-16T08:02:13.520Z,12.40
2019-05-16T08:04:40.602Z,12.30
2019-05-16T08:07:06.942Z,12.30
2019-05-16T08:09:33.461Z,12.20
2019-05-16T08:12:01.851Z,12.30
2019-05-16T08:14:30.289Z,12.20
2019-05-16T08:16:56.477Z,12.20
2019-05-16T08:19:25.315Z,12.20
2019-05-16T08:21:51.109Z,12.20
2019-05-16T08:24:20.309Z,12.20
2019-05-16T08:26:45.835Z,12.20
2019-05-16T08:29:13.491Z,12.20
2019-05-16T08:31:43.043Z,12.30
2019-05-16T08:34:11.707Z,12.20
2019-05-16T08:36:37.007Z,12.20
2019-05-16T08:39:06.030Z,12.20
2019-05-16T08:41:32.360Z,12.20
2019-05-16T08:44:01.149Z,12.30
2019-05-16T08:46:27.008Z,12.30
2019-05-16T08:50:05.530Z,12.30
2019-05-16T08:51:22.227Z,12.40
2019-05-16T08:53:50.464Z,12.30
2019-05-16T08:56:17.192Z,12.20
2019-05-16T08:58:43.708Z,12.20
2019-05-16T09:01:14.747Z,12.20
2019-05-16T09:03:41.579Z,12.20
2019-05-16T09:06:07.164Z,12.30
2019-05-16T09:08:33.574Z,12.30
2019-05-16T09:11:04.842Z,12.30
2019-05-16T09:13:28.325Z,12.30
2019-05-16T09:15:57.097Z,12.20
2019-05-16T09:18:22.859Z,12.00
2019-05-16T09:20:50.285Z,12.10
2019-05-16T09:23:18.013Z,12.00
2019-05-16T09:25:44.745Z,12.00
2019-05-16T09:28:11.256Z,12.10
2019-05-16T09:30:37.618Z,12.00
2019-05-16T09:33:03.825Z,12.10
2019-05-16T09:35:30.458Z,12.10
2019-05-16T09:37:57.598Z,12.20
2019-05-16T09:40:24.009Z,12.30
2019-05-16T09:42:50.387Z,12.30
2019-05-16T09:45:17.405Z,12.20
2019-05-16T09:47:43.752Z,12.20
2019-05-16T09:50:12.315Z,12.30
2019-05-16T09:52:38.935Z,12.30
2019-05-16T09:55:07.638Z,12.30
2019-05-16T09:57:34.023Z,12.30
2019-05-16T10:00:00.643Z,12.40
2019-05-16T10:02:27.546Z,12.40
2019-05-16T10:04:53.835Z,12.30
2019-05-16T10:07:20.091Z,12.40
2019-05-16T10:09:50.031Z,12.50
2019-05-16T10:12:16.347Z,12.50
2019-05-16T10:14:43.244Z,12.40
2019-05-16T10:17:13.824Z,12.50
2019-05-16T10:19:40.111Z,12.50
2019-05-16T10:22:07.365Z,12.40
2019-05-16T10:24:53.857Z,12.50
2019-05-16T10:27:20.483Z,12.60
2019-05-16T10:29:48.411Z,12.50
2019-05-16T10:32:16.714Z,12.50
2019-05-16T10:34:43.260Z,12.60
2019-05-16T10:37:09.732Z,12.60
2019-05-16T10:39:37.408Z,12.60
2019-05-16T10:42:06.644Z,12.60
2019-05-16T10:44:32.110Z,12.50
2019-05-16T10:46:58.519Z,12.40
2019-05-16T10:49:36.503Z,12.40
2019-05-16T10:51:53.015Z,12.30
2019-05-16T10:54:19.708Z,12.10
2019-05-16T10:56:46.756Z,11.90
2019-05-16T10:59:53.210Z,11.80
2019-05-16T11:01:41.358Z,11.90
2019-05-16T11:04:07.685Z,11.90
2019-05-16T11:06:33.996Z,11.80
2019-05-16T11:09:00.317Z,11.70
2019-05-16T11:11:27.275Z,11.70
2019-05-16T11:13:54.022Z,11.60
2019-05-16T11:16:20.290Z,11.50
2019-05-16T11:18:46.720Z,11.50
2019-05-16T11:21:13.290Z,11.50
2019-05-16T11:23:39.657Z,11.30
2019-05-16T11:26:06.141Z,11.30
2019-05-16T11:28:32.707Z,11.40
2019-05-16T11:31:03.207Z,11.40
2019-05-16T11:33:28.253Z,11.50
2019-05-16T11:35:54.879Z,11.40
2019-05-16T11:38:21.136Z,11.40
2019-05-16T11:40:52.072Z,11.40
2019-05-16T11:43:21.690Z,11.20
2019-05-16T11:45:46.954Z,11.20
2019-05-16T11:48:13.350Z,11.20
2019-05-16T11:50:39.853Z,11.20
2019-05-16T11:53:07.272Z,11.30
2019-05-16T11:55:36.968Z,11.40
2019-05-16T11:58:01.855Z,11.30
2019-05-16T12:00:30.552Z,11.20
2019-05-16T12:02:56.709Z,11.40
2019-05-16T12:05:23.040Z,11.50
2019-05-16T12:07:49.320Z,11.60
2019-05-16T12:10:16.507Z,11.60
2019-05-16T12:12:42.833Z,11.50
2019-05-16T12:15:09.518Z,11.40
2019-05-16T12:17:35.938Z,11.50
2019-05-16T12:20:03.996Z,11.50
2019-05-16T12:22:30.387Z,11.50
2019-05-16T12:25:16.921Z,11.60
2019-05-16T12:27:43.187Z,11.60
2019-05-16T12:30:13.604Z,11.40
2019-05-16T12:32:38.024Z,11.40
2019-05-16T12:35:06.523Z,11.40
2019-05-16T12:37:33.103Z,11.50
2019-05-16T12:39:59.569Z,11.40
2019-05-16T12:42:27.048Z,11.40
2019-05-16T12:44:56.209Z,11.30
2019-05-16T12:47:22.106Z,11.30
2019-05-16T12:49:48.489Z,11.30
2019-05-16T12:52:14.958Z,11.40
2019-05-16T12:54:41.221Z,11.40
2019-05-16T12:57:07.382Z,11.50
2019-05-16T12:59:33.861Z,11.50
2019-05-16T13:02:00.243Z,11.50
2019-05-16T13:04:27.983Z,11.40
2019-05-16T13:06:54.556Z,11.40
2019-05-16T13:09:20.828Z,11.50
2019-05-16T13:11:50.248Z,11.50
2019-05-16T13:14:17.026Z,11.60
2019-05-16T13:16:43.365Z,11.50
2019-05-16T13:19:09.826Z,11.50
2019-05-16T13:21:38.061Z,11.60
2019-05-16T13:24:06.791Z,11.70
2019-05-16T13:26:32.738Z,11.80
2019-05-16T13:28:59.170Z,11.80
2019-05-16T13:31:28.599Z,12.00
2019-05-16T13:33:56.674Z,12.10
2019-05-16T13:36:22.302Z,12.30
2019-05-16T13:38:48.647Z,12.40
2019-05-16T13:41:18.006Z,12.60
2019-05-16T13:43:43.396Z,12.70
2019-05-16T13:46:09.767Z,12.90
2019-05-16T13:48:37.664Z,12.90
2019-05-16T13:51:14.406Z,13.00
2019-05-16T13:53:32.769Z,13.10
2019-05-16T13:55:59.272Z,13.20
2019-05-16T13:58:28.034Z,13.30
2019-05-16T14:00:56.981Z,13.40
2019-05-16T14:03:22.242Z,13.30
2019-05-16T14:05:48.773Z,13.40
2019-05-16T14:08:17.028Z,13.40
2019-05-16T14:10:43.421Z,13.40
2019-05-16T14:13:09.823Z,13.30
2019-05-16T14:15:36.728Z,13.20
2019-05-16T14:18:03.423Z,13.30
2019-05-16T14:20:29.990Z,13.20
2019-05-16T14:22:57.344Z,13.30
2019-05-16T14:25:23.775Z,13.40
2019-05-16T14:27:50.161Z,13.30
2019-05-16T14:30:17.704Z,13.20
2019-05-16T14:32:46.698Z,13.20
2019-05-16T14:35:13.056Z,13.20
2019-05-16T14:37:39.396Z,13.30
2019-05-16T14:40:07.346Z,13.20
2019-05-16T14:42:33.706Z,13.20
2019-05-16T14:45:10.792Z,13.30
2019-05-16T14:47:28.316Z,13.20
2019-05-16T14:49:54.594Z,13.30
2019-05-16T14:52:20.995Z,13.30
2019-05-16T14:54:47.324Z,13.20
2019-05-16T14:57:13.715Z,13.30
2019-05-16T14:59:40.336Z,13.30
2019-05-16T15:02:07.234Z,13.40
2019-05-16T15:04:33.696Z,13.30
2019-05-16T15:06:59.989Z,13.40
2019-05-16T15:09:27.294Z,13.40
2019-05-16T15:11:53.657Z,13.30
2019-05-16T15:14:19.982Z,13.40
2019-05-16T15:16:47.905Z,13.40
2019-05-16T15:19:17.387Z,13.40
2019-05-16T15:21:42.882Z,13.40
2019-05-16T15:24:09.170Z,13.40
2019-05-16T15:26:37.621Z,13.50
2019-05-16T15:29:03.809Z,13.50
2019-05-16T15:31:30.798Z,13.60
2019-05-16T15:33:57.331Z,13.60
2019-05-16T15:36:23.956Z,13.70
2019-05-16T15:38:50.374Z,13.70
2019-05-16T15:41:17.586Z,13.70
2019-05-16T15:43:44.171Z,13.60
2019-05-16T15:46:10.562Z,13.70
2019-05-16T15:48:37.219Z,13.70
2019-05-16T15:51:03.718Z,13.70
2019-05-16T15:53:30.607Z,13.70
2019-05-16T15:55:57.788Z,13.80
2019-05-16T15:58:27.955Z,13.70
2019-05-16T16:00:57.922Z,13.80
2019-05-16T16:03:23.788Z,13.80
2019-05-16T16:05:50.599Z,13.70
2019-05-16T16:08:18.158Z,13.70
2019-05-16T16:10:47.719Z,13.60
2019-05-16T16:13:13.199Z,13.50
2019-05-16T16:15:50.613Z,13.50
2019-05-16T16:18:08.829Z,13.50
2019-05-16T16:20:35.713Z,13.50
2019-05-16T16:23:02.794Z,13.50
2019-05-16T16:25:29.316Z,13.50
2019-05-16T16:27:57.275Z,13.50
2019-05-16T16:30:23.905Z,13.40
2019-05-16T16:32:50.175Z,13.30
2019-05-16T16:35:17.335Z,13.30
2019-05-16T16:37:43.902Z,13.30
2019-05-16T16:40:12.099Z,13.40
2019-05-16T16:42:38.599Z,13.30
2019-05-16T16:45:07.284Z,13.30
2019-05-16T16:47:33.836Z,13.30
2019-05-16T16:50:00.200Z,13.30
2019-05-16T16:52:27.377Z,13.30
2019-05-16T16:54:53.691Z,13.10
2019-05-16T16:57:19.937Z,13.00
2019-05-16T16:59:47.646Z,13.00
2019-05-16T17:02:16.986Z,13.10
2019-05-16T17:04:42.435Z,13.10
2019-05-16T17:07:09.062Z,13.00
2019-05-16T17:09:37.378Z,13.10
2019-05-16T17:12:06.524Z,13.10
2019-05-16T17:14:31.956Z,13.10
2019-05-16T17:16:58.274Z,13.00
2019-05-16T17:19:24.586Z,13.10
2019-05-16T17:22:03.335Z,13.10
2019-05-16T17:24:18.970Z,13.10
2019-05-16T17:26:47.578Z,13.20
2019-05-16T17:29:13.444Z,13.10
2019-05-16T17:31:40.041Z,12.90
2019-05-16T17:34:08.340Z,12.90
2019-05-16T17:36:34.588Z,12.90
2019-05-16T17:39:00.872Z,13.00
2019-05-16T17:41:27.391Z,13.00
2019-05-16T17:43:53.715Z,13.00
2019-05-16T17:46:32.742Z,12.90
2019-05-16T17:48:48.353Z,12.90
2019-05-16T17:51:16.716Z,12.90
2019-05-16T17:53:42.927Z,12.90
2019-05-16T17:56:09.151Z,12.90
2019-05-16T17:58:35.505Z,12.90
2019-05-16T18:01:01.819Z,12.90
2019-05-16T18:03:28.140Z,12.90
2019-05-16T18:05:56.596Z,12.90
2019-05-16T18:08:22.982Z,12.90
2019-05-16T18:10:49.371Z,13.00
2019-05-16T18:13:15.642Z,13.00
2019-05-16T18:15:42.127Z,13.00
2019-05-16T18:18:08.387Z,13.00
2019-05-16T18:20:36.993Z,13.00
2019-05-16T18:23:03.028Z,13.00
2019-05-16T18:25:29.403Z,13.00
2019-05-16T18:27:55.950Z,13.00
2019-05-16T18:30:23.107Z,12.90
2019-05-16T18:32:50.007Z,13.00
2019-05-16T18:35:16.864Z,12.90
2019-05-16T18:37:43.332Z,12.80
2019-05-16T18:40:10.084Z,12.70
2019-05-16T18:42:37.068Z,12.80
2019-05-16T18:45:07.407Z,12.80
2019-05-16T18:47:33.718Z,12.80
2019-05-16T18:50:00.454Z,12.80
2019-05-16T18:52:26.892Z,12.70
2019-05-16T18:54:53.398Z,12.60
2019-05-16T18:57:19.965Z,12.60
2019-05-16T18:59:46.344Z,12.60
2019-05-16T19:02:12.795Z,12.70
2019-05-16T19:04:39.289Z,12.70
2019-05-16T19:07:07.856Z,12.60
2019-05-16T19:09:33.951Z,12.60
2019-05-16T19:12:00.353Z,12.60
2019-05-16T19:14:27.150Z,12.60
2019-05-16T19:16:53.782Z,12.50
2019-05-16T19:19:20.224Z,12.50
2019-05-16T19:21:46.591Z,12.50
2019-05-16T19:24:13.334Z,12.50
2019-05-16T19:26:40.354Z,12.50
2019-05-16T19:29:06.876Z,12.50
2019-05-16T19:31:33.415Z,12.40
2019-05-16T19:34:00.768Z,12.40
2019-05-16T19:36:27.220Z,12.40
2019-05-16T19:38:53.639Z,12.40
2019-05-16T19:41:20.204Z,12.30
2019-05-16T19:43:46.717Z,12.30
2019-05-16T19:46:13.305Z,12.20
2019-05-16T19:48:40.006Z,12.30
2019-05-16T19:51:07.495Z,12.30
2019-05-16T19:53:36.350Z,12.30
2019-05-16T19:56:02.477Z,12.30
2019-05-16T19:58:31.087Z,12.20
2019-05-16T20:00:57.446Z,12.20
2019-05-16T20:03:23.873Z,12.30
2019-05-16T20:05:50.153Z,12.30
2019-05-16T20:08:17.498Z,12.30
2019-05-16T20:10:44.114Z,12.30
2019-05-16T20:13:10.512Z,12.30
2019-05-16T20:15:36.948Z,12.20
2019-05-16T20:18:03.260Z,12.20
2019-05-16T20:20:29.618Z,12.00
2019-05-16T20:22:56.703Z,12.00
2019-05-16T20:25:22.922Z,11.90
2019-05-16T20:27:49.253Z,11.90
2019-05-16T20:30:17.058Z,12.00
2019-05-16T20:32:43.709Z,12.00
2019-05-16T20:35:10.395Z,11.90
2019-05-16T20:37:36.819Z,11.80
2019-05-16T20:40:08.496Z,11.80
2019-05-16T20:42:32.408Z,11.90
2019-05-16T20:44:58.697Z,11.90
2019-05-16T20:47:27.135Z,11.80
2019-05-16T20:49:53.355Z,11.90
2019-05-16T20:52:19.634Z,11.80
2019-05-16T20:54:46.595Z,11.80
2019-05-16T20:57:14.130Z,11.90
2019-05-16T20:59:40.410Z,12.00
2019-05-16T21:02:07.048Z,11.90
2019-05-16T21:04:33.388Z,11.80
2019-05-16T21:07:07.046Z,11.80
2019-05-16T21:09:27.780Z,11.80
2019-05-16T21:11:56.780Z,11.80
2019-05-16T21:14:22.155Z,11.70
2019-05-16T21:16:49.585Z,11.70
2019-05-16T21:19:16.378Z,11.80
2019-05-16T21:21:42.780Z,11.80
2019-05-16T21:24:09.122Z,11.90
2019-05-16T21:26:36.784Z,11.90
2019-05-16T21:29:03.512Z,11.90
2019-05-16T21:31:29.768Z,11.80
2019-05-16T21:33:56.507Z,11.90
2019-05-16T21:36:22.876Z,11.90
2019-05-16T21:38:49.143Z,11.80
2019-05-16T21:41:16.845Z,11.80
2019-05-16T21:43:43.237Z,11.80
2019-05-16T21:46:09.598Z,11.80
2019-05-16T21:48:37.035Z,11.80
2019-05-16T21:51:03.433Z,11.80
2019-05-16T21:53:30.041Z,11.70
2019-05-16T21:55:56.617Z,11.70
2019-05-16T21:58:23.008Z,11.70
2019-05-16T22:00:53.107Z,11.80
2019-05-16T22:03:19.541Z,11.80
2019-05-16T22:05:46.538Z,11.90
2019-05-16T22:08:13.140Z,11.80
2019-05-16T22:10:39.418Z,11.90
2019-05-16T22:13:07.790Z,11.90
2019-05-16T22:15:34.129Z,11.80
2019-05-16T22:18:00.381Z,11.80
2019-05-16T22:20:27.243Z,11.90
2019-05-16T22:22:53.591Z,11.90
2019-05-16T22:25:20.427Z,11.90
2019-05-16T22:27:48.815Z,12.00
2019-05-16T22:30:16.655Z,12.00
2019-05-16T22:32:43.115Z,12.00
2019-05-16T22:35:09.984Z,11.90
2019-05-16T22:37:49.264Z,11.90
2019-05-16T22:40:06.637Z,11.90
2019-05-16T22:42:32.675Z,11.80
2019-05-16T22:44:59.142Z,11.80
2019-05-16T22:47:26.603Z,11.90
2019-05-16T22:49:53.148Z,11.90
2019-05-16T22:52:19.566Z,11.90
2019-05-16T22:54:47.565Z,11.90
2019-05-16T22:57:13.979Z,11.90
2019-05-16T22:59:40.418Z,11.90
2019-05-16T23:02:11.352Z,11.90
2019-05-16T23:04:36.715Z,11.80
2019-05-16T23:07:03.234Z,11.80
2019-05-16T23:09:29.505Z,11.90
2019-05-16T23:11:56.360Z,11.70
2019-05-16T23:14:22.714Z,11.70
2019-05-16T23:16:48.990Z,11.70
2019-05-16T23:19:17.180Z,11.70
2019-05-16T23:21:43.336Z,11.70
2019-05-16T23:24:09.636Z,11.70
2019-05-16T23:26:36.391Z,11.70
2019-05-16T23:29:02.937Z,11.70
2019-05-16T23:31:29.232Z,11.70
2019-05-16T23:33:56.476Z,11.80
2019-05-16T23:36:22.839Z,11.70
2019-05-16T23:38:49.112Z,11.70
2019-05-16T23:41:17.238Z,11.70
2019-05-16T23:43:43.783Z,11.50
2019-05-16T23:46:10.211Z,11.50
2019-05-16T23:48:36.702Z,11.50
2019-05-16T23:51:03.076Z,11.50
2019-05-16T23:53:29.423Z,11.50
2019-05-16T23:55:56.732Z,11.60
2019-05-16T23:58:23.235Z,11.60
